Time,TemperatureF,DewpointF,PressureIn,WindDirection,WindDirectionDegrees,WindSpeedMPH,WindSpeedGustMPH,Humidity,HourlyPrecipIn,Conditions,Clouds,dailyrainin,SoftwareType,DateUTC
2013-03-31 00:00:00,29.4,19.0,30.14,West,261,2.0,-999.0,66,-99.99,,,0.00,weatherlink.com 1.10,2013-03-31 04:00:00,
2013-03-31 00:15:00,30.8,19.0,30.14,West,261,0.0,-999.0,62,-99.99,,,0.00,weatherlink.com 1.10,2013-03-31 04:15:00,
2013-03-31 00:31:00,29.8,19.0,30.14,West,261,0.0,-999.0,65,-99.99,,,0.00,weatherlink.com 1.10,2013-03-31 04:31:00,
2013-03-31 00:46:00,28.6,20.0,30.13,West,261,0.0,-999.0,69,-99.99,,,0.00,weatherlink.com 1.10,2013-03-31 04:46:00,
2013-03-31 01:01:00,27.9,20.0,30.13,West,261,0.0,-999.0,71,-99.99,,,0.00,weatherlink.com 1.10,2013-03-31 05:01:00,
2013-03-31 01:16:00,28.2,20.0,30.13,West,261,0.0,-999.0,71,-99.99,,,0.00,weatherlink.com 1.10,2013-03-31 05:16:00,
2013-03-31 01:31:00,28.2,20.0,30.14,West,261,0.0,-999.0,70,-99.99,,,0.00,weatherlink.com 1.10,2013-03-31 05:31:00,
2013-03-31 01:46:00,26.9,19.0,30.14,West,261,1.0,-999.0,71,-99.99,,,0.00,weatherlink.com 1.10,2013-03-31 05:46:00,
2013-03-31 03:31:00,25.7,19.0,30.13,West,261,0.0,-999.0,75,-99.99,,,0.00,weatherlink.com 1.10,2013-03-31 07:31:00,
2013-03-31 03:46:00,25.4,19.0,30.13,West,261,0.0,-999.0,78,-99.99,,,0.00,weatherlink.com 1.10,2013-03-31 07:46:00,
2013-03-31 04:01:00,24.9,19.0,30.13,West,261,0.0,-999.0,79,-99.99,,,0.00,weatherlink.com 1.10,2013-03-31 08:01:00,
2013-03-31 04:16:00,24.8,19.0,30.13,West,261,0.0,-999.0,79,-99.99,,,0.00,weatherlink.com 1.10,2013-03-31 08:16:00,
2013-03-31 04:31:00,24.6,19.0,30.13,West,261,0.0,-999.0,79,-99.99,,,0.00,weatherlink.com 1.10,2013-03-31 08:31:00,
2013-03-31 04:46:00,24.2,19.0,30.13,West,261,0.0,-999.0,80,-99.99,,,0.00,weatherlink.com 1.10,2013-03-31 08:46:00,
2013-03-31 05:01:00,24.2,19.0,30.13,West,261,0.0,-999.0,81,-99.99,,,0.00,weatherlink.com 1.10,2013-03-31 09:01:00,
2013-03-31 05:16:00,23.9,19.0,30.13,West,261,0.0,-999.0,81,-99.99,,,0.00,weatherlink.com 1.10,2013-03-31 09:16:00,
2013-03-31 05:31:00,23.6,19.0,30.13,West,261,0.0,-999.0,82,-99.99,,,0.00,weatherlink.com 1.10,2013-03-31 09:31:00,
2013-03-31 05:46:00,23.3,19.0,30.12,West,261,0.0,-999.0,82,-99.99,,,0.00,weatherlink.com 1.10,2013-03-31 09:46:00,
2013-03-31 06:01:00,23.4,19.0,30.12,West,261,1.0,-999.0,82,-99.99,,,0.00,weatherlink.com 1.10,2013-03-31 10:01:00,
2013-03-31 06:16:00,23.6,19.0,30.11,West,261,0.0,-999.0,82,-99.99,,,0.00,weatherlink.com 1.10,2013-03-31 10:16:00,
2013-03-31 06:46:00,22.8,18.0,30.11,West,261,0.0,-999.0,82,-99.99,,,0.00,weatherlink.com 1.10,2013-03-31 10:46:00,
2013-03-31 07:01:00,23.1,19.0,30.11,West,261,0.0,-999.0,83,-99.99,,,0.00,weatherlink.com 1.10,2013-03-31 11:01:00,
2013-03-31 07:16:00,23.6,19.0,30.11,West,261,0.0,-999.0,83,-99.99,,,0.00,weatherlink.com 1.10,2013-03-31 11:16:00,
2013-03-31 07:31:00,24.9,21.0,30.11,West,261,0.0,-999.0,84,-99.99,,,0.00,weatherlink.com 1.10,2013-03-31 11:31:00,
2013-03-31 07:46:00,26.7,22.0,30.11,West,261,0.0,-999.0,82,-99.99,,,0.00,weatherlink.com 1.10,2013-03-31 11:46:00,
2013-03-31 08:01:00,27.9,23.0,30.11,SSW,197,0.0,-999.0,80,-99.99,,,0.00,weatherlink.com 1.10,2013-03-31 12:01:00,
2013-03-31 08:16:00,28.0,23.0,30.11,SSW,198,0.0,-999.0,80,-99.99,,,0.00,weatherlink.com 1.10,2013-03-31 12:16:00,
2013-03-31 08:31:00,29.6,24.0,30.10,East,99,0.0,-999.0,78,-99.99,,,0.00,weatherlink.com 1.10,2013-03-31 12:31:00,
2013-03-31 08:46:00,31.5,24.0,30.10,East,98,2.0,-999.0,74,-99.99,,,0.00,weatherlink.com 1.10,2013-03-31 12:46:00,
2013-03-31 09:01:00,32.1,24.0,30.09,East,98,0.0,-999.0,71,-99.99,,,0.00,weatherlink.com 1.10,2013-03-31 13:01:00,
2013-03-31 09:16:00,33.7,25.0,30.09,SE,136,0.0,-999.0,71,-99.99,,,0.00,weatherlink.com 1.10,2013-03-31 13:16:00,
2013-03-31 09:31:00,35.1,25.0,30.09,ESE,102,0.0,-999.0,68,-99.99,,,0.00,weatherlink.com 1.10,2013-03-31 13:31:00,
2013-03-31 10:01:00,37.8,25.0,30.08,SSE,162,4.0,-999.0,61,-99.99,,,0.00,weatherlink.com 1.10,2013-03-31 14:01:00,
2013-03-31 10:16:00,39.5,26.0,30.07,ESE,108,0.0,-999.0,59,-99.99,,,0.00,weatherlink.com 1.10,2013-03-31 14:16:00,
2013-03-31 10:46:00,44.3,27.0,30.06,South,187,7.0,-999.0,50,-99.99,,,0.00,weatherlink.com 1.10,2013-03-31 14:46:00,
2013-03-31 11:01:00,46.6,28.0,30.06,East,91,5.0,-999.0,48,-99.99,,,0.00,weatherlink.com 1.10,2013-03-31 15:01:00,
2013-03-31 11:16:00,46.8,27.0,30.06,South,182,7.0,-999.0,46,-99.99,,,0.00,weatherlink.com 1.10,2013-03-31 15:16:00,
2013-03-31 11:31:00,46.9,26.0,30.05,SSE,161,4.0,-999.0,45,-99.99,,,0.00,weatherlink.com 1.10,2013-03-31 15:31:00,
2013-03-31 11:46:00,48.6,26.0,30.04,SE,126,6.0,-999.0,41,-99.99,,,0.00,weatherlink.com 1.10,2013-03-31 15:46:00,
2013-03-31 12:01:00,49.3,26.0,30.03,South,190,12.0,-999.0,41,-99.99,,,0.00,weatherlink.com 1.10,2013-03-31 16:01:00,
2013-03-31 12:17:00,51.1,28.0,30.02,SSE,163,6.0,-999.0,41,-99.99,,,0.00,weatherlink.com 1.10,2013-03-31 16:17:00,
2013-03-31 12:32:00,51.3,27.0,30.02,South,178,9.0,-999.0,39,-99.99,,,0.00,weatherlink.com 1.10,2013-03-31 16:32:00,
2013-03-31 12:47:00,52.7,29.0,30.00,SSW,194,13.0,-999.0,40,-99.99,,,0.00,weatherlink.com 1.10,2013-03-31 16:47:00,
2013-03-31 13:02:00,52.4,28.0,30.00,South,176,8.0,-999.0,39,-99.99,,,0.00,weatherlink.com 1.10,2013-03-31 17:02:00,
2013-03-31 13:17:00,52.8,28.0,29.99,South,186,9.0,-999.0,38,-99.99,,,0.00,weatherlink.com 1.10,2013-03-31 17:17:00,
2013-03-31 13:32:00,52.9,26.0,29.97,South,191,9.0,-999.0,36,-99.99,,,0.00,weatherlink.com 1.10,2013-03-31 17:32:00,
2013-03-31 13:47:00,52.7,28.0,29.96,SE,130,6.0,-999.0,38,-99.99,,,0.00,weatherlink.com 1.10,2013-03-31 17:47:00,
2013-03-31 14:02:00,52.6,26.0,29.95,SSE,163,10.0,-999.0,36,-99.99,,,0.00,weatherlink.com 1.10,2013-03-31 18:02:00,
2013-03-31 14:17:00,52.4,25.0,29.95,South,182,10.0,-999.0,35,-99.99,,,0.00,weatherlink.com 1.10,2013-03-31 18:17:00,
2013-03-31 14:32:00,52.3,26.0,29.94,South,184,10.0,-999.0,36,-99.99,,,0.00,weatherlink.com 1.10,2013-03-31 18:32:00,
2013-03-31 14:47:00,52.1,26.0,29.93,South,180,9.0,-999.0,36,-99.99,,,0.00,weatherlink.com 1.10,2013-03-31 18:47:00,
2013-03-31 15:02:00,52.0,26.0,29.93,South,169,14.0,-999.0,37,-99.99,,,0.00,weatherlink.com 1.10,2013-03-31 19:02:00,
2013-03-31 15:17:00,51.6,26.0,29.92,South,189,7.0,-999.0,37,-99.99,,,0.00,weatherlink.com 1.10,2013-03-31 19:17:00,
2013-03-31 15:32:00,51.3,26.0,29.92,SSW,200,13.0,-999.0,38,-99.99,,,0.00,weatherlink.com 1.10,2013-03-31 19:32:00,
2013-03-31 15:47:00,51.3,26.0,29.91,South,185,13.0,-999.0,37,-99.99,,,0.00,weatherlink.com 1.10,2013-03-31 19:47:00,
2013-03-31 16:02:00,51.4,26.0,29.91,SSE,168,7.0,-999.0,38,-99.99,,,0.00,weatherlink.com 1.10,2013-03-31 20:02:00,
2013-03-31 16:17:00,51.5,26.0,29.90,SSE,163,6.0,-999.0,38,-99.99,,,0.00,weatherlink.com 1.10,2013-03-31 20:17:00,
2013-03-31 16:32:00,51.4,27.0,29.89,South,175,8.0,-999.0,39,-99.99,,,0.00,weatherlink.com 1.10,2013-03-31 20:32:00,
2013-03-31 16:47:00,51.4,27.0,29.89,South,188,11.0,-999.0,39,-99.99,,,0.00,weatherlink.com 1.10,2013-03-31 20:47:00,
2013-03-31 17:02:00,51.6,27.0,29.88,South,175,12.0,-999.0,39,-99.99,,,0.00,weatherlink.com 1.10,2013-03-31 21:02:00,
2013-03-31 17:17:00,51.8,27.0,29.88,South,172,8.0,-999.0,39,-99.99,,,0.00,weatherlink.com 1.10,2013-03-31 21:17:00,
2013-03-31 17:32:00,51.7,28.0,29.87,SW,221,12.0,-999.0,40,-99.99,,,0.00,weatherlink.com 1.10,2013-03-31 21:32:00,
2013-03-31 17:47:00,51.7,28.0,29.87,South,177,17.0,-999.0,40,-99.99,,,0.00,weatherlink.com 1.10,2013-03-31 21:47:00,
2013-03-31 18:02:00,51.5,28.0,29.86,SSE,152,12.0,-999.0,40,-99.99,,,0.00,weatherlink.com 1.10,2013-03-31 22:02:00,
2013-03-31 18:17:00,51.1,28.0,29.86,South,183,8.0,-999.0,41,-99.99,,,0.00,weatherlink.com 1.10,2013-03-31 22:17:00,
2013-03-31 18:33:00,50.6,28.0,29.86,SSE,154,11.0,-999.0,42,-99.99,,,0.00,weatherlink.com 1.10,2013-03-31 22:33:00,
2013-03-31 18:48:00,50.1,28.0,29.86,SSE,152,9.0,-999.0,42,-99.99,,,0.00,weatherlink.com 1.10,2013-03-31 22:48:00,
2013-03-31 19:03:00,49.8,28.0,29.86,SSW,193,9.0,-999.0,44,-99.99,,,0.00,weatherlink.com 1.10,2013-03-31 23:03:00,
2013-03-31 19:18:00,49.5,28.0,29.85,South,190,6.0,-999.0,44,-99.99,,,0.00,weatherlink.com 1.10,2013-03-31 23:18:00,
2013-03-31 19:33:00,48.8,29.0,29.86,SSW,201,6.0,-999.0,46,-99.99,,,0.00,weatherlink.com 1.10,2013-03-31 23:33:00,
2013-03-31 19:48:00,48.1,30.0,29.86,SSE,163,13.0,-999.0,49,-99.99,,,0.00,weatherlink.com 1.10,2013-03-31 23:48:00,
2013-03-31 20:03:00,47.9,30.0,29.85,South,179,12.0,-999.0,51,-99.99,,,0.00,weatherlink.com 1.10,2013-04-01 00:03:00,
2013-03-31 20:18:00,46.6,31.0,29.85,SSW,194,16.0,-999.0,56,-99.99,,,0.00,weatherlink.com 1.10,2013-04-01 00:18:00,
2013-03-31 20:33:00,45.4,32.0,29.86,SSW,195,12.0,-999.0,61,-99.99,,,0.00,weatherlink.com 1.10,2013-04-01 00:33:00,
2013-03-31 20:48:00,44.0,34.0,29.86,SSE,155,7.0,-999.0,68,-99.99,,,0.00,weatherlink.com 1.10,2013-04-01 00:48:00,
2013-03-31 21:03:00,42.8,35.0,29.86,South,178,8.0,-999.0,74,-99.99,,,0.00,weatherlink.com 1.10,2013-04-01 01:03:00,
2013-03-31 21:18:00,42.0,36.0,29.86,SSW,198,10.0,-999.0,78,-99.99,,,0.00,weatherlink.com 1.10,2013-04-01 01:18:00,
2013-03-31 21:33:00,40.7,36.0,29.86,South,174,9.0,-999.0,83,-99.99,,,0.00,weatherlink.com 1.10,2013-04-01 01:33:00,
2013-03-31 21:48:00,39.8,36.0,29.86,SSE,153,10.0,-999.0,86,-99.99,,,0.02,weatherlink.com 1.10,2013-04-01 01:48:00,
2013-03-31 22:03:00,39.3,36.0,29.85,SSW,207,10.0,-999.0,88,-99.99,,,0.03,weatherlink.com 1.10,2013-04-01 02:03:00,
2013-03-31 22:18:00,39.1,36.0,29.84,SSE,161,2.0,-999.0,88,-99.99,,,0.04,weatherlink.com 1.10,2013-04-01 02:18:00,
2013-03-31 22:33:00,38.9,36.0,29.83,SSW,193,5.0,-999.0,90,-99.99,,,0.04,weatherlink.com 1.10,2013-04-01 02:33:00,
2013-03-31 22:48:00,38.8,36.0,29.82,SSE,163,4.0,-999.0,90,-99.99,,,0.04,weatherlink.com 1.10,2013-04-01 02:48:00,
2013-03-31 23:03:00,38.7,36.0,29.81,South,170,4.0,-999.0,91,-99.99,,,0.06,weatherlink.com 1.10,2013-04-01 03:03:00,
2013-03-31 23:18:00,38.6,36.0,29.80,South,170,4.0,-999.0,91,-99.99,,,0.07,weatherlink.com 1.10,2013-04-01 03:18:00,
2013-03-31 23:33:00,38.4,36.0,29.79,South,169,1.0,-999.0,92,-99.99,,,0.09,weatherlink.com 1.10,2013-04-01 03:33:00,
2013-03-31 23:49:00,38.3,36.0,29.77,South,170,0.0,-999.0,92,-99.99,,,0.10,weatherlink.com 1.10,2013-04-01 03:49:00,